Time;durP1;ratioP1;P1;durP2;ratioP2;P2;SDS_P1;SDS_P2;PMS_P1;PMS_P2;Temp;Humidity;BMP_temperature;BMP_pressure;BME280_temperature;BME280_humidity;BME280_pressure;Samples;Min_cycle;Max_cycle;Signal;HPM_P1;HPM_P2
2022/10/25 00:01:30;;;;;;;0.50;0.30;;;;;;;;;;5044289;28;20025;-85
2022/10/25 00:03:56;;;;;;;0.40;0.40;;;;;;;;;;5063631;28;20127;-85
2022/10/25 00:06:22;;;;;;;18.73;0.80;;;;;;;;;;5063090;28;20032;-84
2022/10/25 00:08:48;;;;;;;0.40;0.40;;;;;;;;;;5061893;28;20039;-86
2022/10/25 00:11:23;;;;;;;0.50;0.40;;;;;;;;;;5062229;28;20101;-86
2022/10/25 00:13:50;;;;;;;0.40;0.40;;;;;;;;;;5045087;28;20597;-87
2022/10/25 00:16:19;;;;;;;0.20;0.20;;;;;;;;;;5063472;28;20037;-85
2022/10/25 00:18:44;;;;;;;1.02;0.50;;;;;;;;;;5064667;28;20037;-87
2022/10/25 00:21:10;;;;;;;0.30;0.30;;;;;;;;;;5062396;28;20044;-84
2022/10/25 00:23:35;;;;;;;0.88;0.40;;;;;;;;;;5043553;28;20120;-84
2022/10/25 00:26:02;;;;;;;1.17;0.40;;;;;;;;;;5045438;28;20112;-86
2022/10/25 00:28:28;;;;;;;2.05;0.40;;;;;;;;;;5044481;28;20064;-85
2022/10/25 00:31:05;;;;;;;0.77;0.40;;;;;;;;;;5043769;28;20130;-85
2022/10/25 00:33:32;;;;;;;0.40;0.40;;;;;;;;;;5045194;28;20109;-86
2022/10/25 00:36:11;;;;;;;0.50;0.40;;;;;;;;;;5044055;28;20061;-85
2022/10/25 00:38:37;;;;;;;0.90;0.50;;;;;;;;;;5039218;28;20112;-84
2022/10/25 00:41:04;;;;;;;0.40;0.40;;;;;;;;;;5036204;28;20036;-84
2022/10/25 00:43:46;;;;;;;0.43;0.32;;;;;;;;;;5037670;28;20040;-83
2022/10/25 00:46:22;;;;;;;0.30;0.30;;;;;;;;;;5036909;28;20036;-84
2022/10/25 00:49:08;;;;;;;0.60;0.40;;;;;;;;;;5038833;28;20041;-84
2022/10/25 00:51:37;;;;;;;0.40;0.40;;;;;;;;;;5019834;28;20135;-83
2022/10/25 00:54:05;;;;;;;0.50;0.38;;;;;;;;;;5037865;28;20071;-85
2022/10/25 00:56:35;;;;;;;1.65;0.50;;;;;;;;;;5036490;28;20120;-83
2022/10/25 00:59:05;;;;;;;0.73;0.50;;;;;;;;;;5036722;28;20083;-84
2022/10/25 01:01:31;;;;;;;1.02;0.60;;;;;;;;;;5038715;28;20037;-84
2022/10/25 01:04:01;;;;;;;1.92;0.50;;;;;;;;;;5035848;28;20043;-85
2022/10/25 01:06:37;;;;;;;0.55;0.38;;;;;;;;;;5036663;28;20360;-84
2022/10/25 01:09:04;;;;;;;0.55;0.50;;;;;;;;;;5038232;28;20037;-83
2022/10/25 01:11:29;;;;;;;0.38;0.38;;;;;;;;;;5038599;28;20055;-86
2022/10/25 01:13:56;;;;;;;3.60;0.40;;;;;;;;;;5036239;28;20061;-84
2022/10/25 01:16:33;;;;;;;1.10;0.60;;;;;;;;;;5037784;28;20037;-85
2022/10/25 01:19:02;;;;;;;0.90;0.40;;;;;;;;;;5037035;28;20041;-83
2022/10/25 01:21:37;;;;;;;0.95;0.50;;;;;;;;;;5038738;28;20048;-84
2022/10/25 01:24:24;;;;;;;0.82;0.55;;;;;;;;;;5038559;28;20040;-84
2022/10/25 01:27:27;;;;;;;1.05;0.40;;;;;;;;;;5037126;28;20029;-85
2022/10/25 01:29:58;;;;;;;0.40;0.35;;;;;;;;;;5037646;28;20103;-85
2022/10/25 01:32:34;;;;;;;1.13;0.45;;;;;;;;;;5037670;28;20030;-84
2022/10/25 01:35:11;;;;;;;0.50;0.38;;;;;;;;;;5037941;28;20045;-84
2022/10/25 01:37:54;;;;;;;0.60;0.50;;;;;;;;;;5037935;28;20037;-84
2022/10/25 01:40:27;;;;;;;0.50;0.45;;;;;;;;;;5038951;28;20037;-84
2022/10/25 01:43:04;;;;;;;10.82;0.60;;;;;;;;;;5039686;28;20494;-85
2022/10/25 01:45:37;;;;;;;1.13;0.40;;;;;;;;;;5039607;28;20552;-84
2022/10/25 01:48:11;;;;;;;2.63;0.50;;;;;;;;;;5038741;28;20038;-85
2022/10/25 01:50:44;;;;;;;1.13;0.50;;;;;;;;;;5042086;28;20034;-84
2022/10/25 01:53:11;;;;;;;1.02;0.47;;;;;;;;;;5041403;28;20469;-83
2022/10/25 01:55:56;;;;;;;0.88;0.50;;;;;;;;;;5039498;28;20030;-84
2022/10/25 01:58:35;;;;;;;2.75;0.47;;;;;;;;;;5038078;28;20064;-85
2022/10/25 02:01:03;;;;;;;2.60;0.32;;;;;;;;;;5039355;28;20048;-84
2022/10/25 02:03:54;;;;;;;0.50;0.45;;;;;;;;;;5038780;28;20052;-85
2022/10/25 02:06:38;;;;;;;1.15;0.43;;;;;;;;;;5037693;28;20137;-84
2022/10/25 02:09:24;;;;;;;0.73;0.50;;;;;;;;;;5040095;28;20033;-85
2022/10/25 02:11:51;;;;;;;2.60;0.50;;;;;;;;;;5040689;28;20041;-85
2022/10/25 02:14:26;;;;;;;1.55;0.40;;;;;;;;;;5038507;28;20087;-84
2022/10/25 02:17:07;;;;;;;3.33;0.52;;;;;;;;;;5039750;28;20112;-83
2022/10/25 02:19:37;;;;;;;0.70;0.68;;;;;;;;;;5040809;28;20037;-85
2022/10/25 02:22:07;;;;;;;0.93;0.60;;;;;;;;;;5040404;28;20502;-85
2022/10/25 02:24:34;;;;;;;0.95;0.40;;;;;;;;;;5039648;28;20029;-86
2022/10/25 02:27:01;;;;;;;0.68;0.40;;;;;;;;;;5041930;28;20441;-84
2022/10/25 02:29:30;;;;;;;0.70;0.43;;;;;;;;;;5042379;28;20061;-84
2022/10/25 02:31:56;;;;;;;0.82;0.40;;;;;;;;;;5040012;28;20029;-86
2022/10/25 02:34:21;;;;;;;0.95;0.52;;;;;;;;;;5040118;28;20490;-83
2022/10/25 02:36:52;;;;;;;0.75;0.60;;;;;;;;;;5027880;28;20033;-85
2022/10/25 02:39:19;;;;;;;0.68;0.60;;;;;;;;;;5046437;28;20037;-85
2022/10/25 02:41:45;;;;;;;0.60;0.50;;;;;;;;;;5046650;28;20048;-86
2022/10/25 02:44:10;;;;;;;3.97;0.68;;;;;;;;;;5046710;28;20037;-86
2022/10/25 02:46:36;;;;;;;1.00;0.52;;;;;;;;;;5047253;28;20033;-84
2022/10/25 02:49:01;;;;;;;3.42;0.43;;;;;;;;;;5045778;28;20508;-85
2022/10/25 02:51:27;;;;;;;1.65;0.40;;;;;;;;;;5029242;28;20033;-86
2022/10/25 02:53:52;;;;;;;0.47;0.45;;;;;;;;;;5029478;28;20061;-85
2022/10/25 02:56:20;;;;;;;1.45;0.50;;;;;;;;;;5042720;28;20056;-84
2022/10/25 02:58:47;;;;;;;2.97;0.88;;;;;;;;;;5039655;28;20601;-83
2022/10/25 03:01:13;;;;;;;0.80;0.50;;;;;;;;;;5039797;28;20037;-84
2022/10/25 03:03:39;;;;;;;1.88;0.50;;;;;;;;;;5040430;28;20070;-83
2022/10/25 03:06:05;;;;;;;0.50;0.50;;;;;;;;;;5039754;28;20037;-83
2022/10/25 03:08:31;;;;;;;1.27;0.50;;;;;;;;;;5040291;28;20059;-83
2022/10/25 03:10:57;;;;;;;0.80;0.50;;;;;;;;;;5038903;28;20476;-83
2022/10/25 03:13:23;;;;;;;1.02;0.60;;;;;;;;;;5022128;28;20091;-83
2022/10/25 03:15:48;;;;;;;1.05;0.50;;;;;;;;;;5039173;28;20513;-84
2022/10/25 03:18:14;;;;;;;0.40;0.40;;;;;;;;;;5040938;28;20116;-83
2022/10/25 03:20:40;;;;;;;1.92;0.50;;;;;;;;;;5041182;28;20040;-83
2022/10/25 03:23:05;;;;;;;0.68;0.47;;;;;;;;;;5023473;28;20059;-83
2022/10/25 03:25:31;;;;;;;1.02;0.52;;;;;;;;;;5041022;28;20040;-83
2022/10/25 03:27:59;;;;;;;2.33;0.70;;;;;;;;;;5041268;28;20113;-84
2022/10/25 03:30:26;;;;;;;3.00;0.70;;;;;;;;;;5040390;28;20041;-86
2022/10/25 03:32:52;;;;;;;1.25;0.77;;;;;;;;;;5041912;28;20555;-85
2022/10/25 03:35:17;;;;;;;0.65;0.50;;;;;;;;;;5044915;28;20025;-86
2022/10/25 03:37:43;;;;;;;3.08;1.10;;;;;;;;;;5023067;28;20147;-84
2022/10/25 03:40:09;;;;;;;1.08;0.60;;;;;;;;;;5040874;28;20080;-84
2022/10/25 03:42:34;;;;;;;2.58;0.70;;;;;;;;;;5024741;28;20044;-84
2022/10/25 03:45:00;;;;;;;1.15;0.68;;;;;;;;;;5042776;28;20029;-84
2022/10/25 03:47:25;;;;;;;1.00;0.50;;;;;;;;;;5041237;28;20107;-85
2022/10/25 03:49:50;;;;;;;0.80;0.63;;;;;;;;;;5023477;28;20112;-83
2022/10/25 03:52:16;;;;;;;1.65;0.70;;;;;;;;;;5041897;28;20379;-83
2022/10/25 03:54:42;;;;;;;0.75;0.60;;;;;;;;;;5042073;28;20124;-86
2022/10/25 03:57:07;;;;;;;1.63;0.70;;;;;;;;;;5044669;28;20040;-85
2022/10/25 03:59:33;;;;;;;0.80;0.70;;;;;;;;;;5042818;28;20068;-83
2022/10/25 04:01:59;;;;;;;0.85;0.50;;;;;;;;;;5042981;28;20457;-83
2022/10/25 04:04:25;;;;;;;0.45;0.43;;;;;;;;;;5040431;28;20047;-84
2022/10/25 04:06:50;;;;;;;0.65;0.63;;;;;;;;;;5042315;28;20549;-84
2022/10/25 04:09:16;;;;;;;4.72;0.90;;;;;;;;;;5040280;28;20163;-82
2022/10/25 04:11:42;;;;;;;1.40;1.20;;;;;;;;;;5040418;28;20038;-84
2022/10/25 04:14:07;;;;;;;3.90;0.93;;;;;;;;;;5041054;28;20033;-84
2022/10/25 04:16:32;;;;;;;3.35;0.90;;;;;;;;;;5041831;28;20406;-84
2022/10/25 04:18:58;;;;;;;0.98;0.70;;;;;;;;;;5041441;28;20034;-85
2022/10/25 04:21:24;;;;;;;1.40;0.80;;;;;;;;;;5023543;28;20036;-85
2022/10/25 04:23:50;;;;;;;0.57;0.57;;;;;;;;;;5041633;28;20029;-86
2022/10/25 04:26:17;;;;;;;1.67;0.68;;;;;;;;;;5042655;28;20108;-85
2022/10/25 04:28:43;;;;;;;2.20;0.60;;;;;;;;;;5041804;28;20076;-86
2022/10/25 04:31:09;;;;;;;1.52;0.70;;;;;;;;;;5040989;28;20048;-83
2022/10/25 04:33:35;;;;;;;2.20;0.80;;;;;;;;;;5041679;28;20037;-86
2022/10/25 04:36:00;;;;;;;1.13;0.80;;;;;;;;;;5040325;28;20061;-86
2022/10/25 04:38:26;;;;;;;2.30;1.23;;;;;;;;;;5041987;28;20072;-85
2022/10/25 04:40:55;;;;;;;2.92;1.50;;;;;;;;;;5041701;28;20041;-84
2022/10/25 04:43:22;;;;;;;3.95;1.05;;;;;;;;;;5040877;28;20045;-85
2022/10/25 04:45:47;;;;;;;1.95;0.70;;;;;;;;;;5043167;28;20033;-86
2022/10/25 04:48:13;;;;;;;0.95;0.85;;;;;;;;;;5043625;28;20059;-85
2022/10/25 04:50:38;;;;;;;0.77;0.70;;;;;;;;;;5042176;28;20040;-84
2022/10/25 04:53:04;;;;;;;1.25;0.70;;;;;;;;;;5043824;28;20041;-84
2022/10/25 04:55:31;;;;;;;0.98;0.68;;;;;;;;;;5041945;28;20052;-86
2022/10/25 04:57:56;;;;;;;1.33;1.00;;;;;;;;;;5043532;28;20086;-85
2022/10/25 05:00:23;;;;;;;1.73;0.90;;;;;;;;;;5043871;28;20149;-84
2022/10/25 05:02:52;;;;;;;7.70;2.17;;;;;;;;;;5042744;28;20044;-85
2022/10/25 05:05:18;;;;;;;1.90;1.27;;;;;;;;;;5044176;28;20033;-86
2022/10/25 05:07:44;;;;;;;2.58;1.50;;;;;;;;;;5043287;28;20107;-85
2022/10/25 05:10:10;;;;;;;1.55;1.10;;;;;;;;;;5026912;28;20402;-86
2022/10/25 05:12:36;;;;;;;3.60;2.35;;;;;;;;;;5043258;28;20068;-85
2022/10/25 05:15:03;;;;;;;2.85;2.00;;;;;;;;;;5043890;28;20041;-85
2022/10/25 05:17:28;;;;;;;3.13;2.00;;;;;;;;;;5038011;28;20103;-85
2022/10/25 05:19:53;;;;;;;3.40;1.05;;;;;;;;;;5036928;28;20045;-85
2022/10/25 05:22:19;;;;;;;3.55;2.38;;;;;;;;;;5037593;28;20048;-84
2022/10/25 05:24:44;;;;;;;1.90;1.60;;;;;;;;;;5036141;28;20038;-84
2022/10/25 05:27:10;;;;;;;2.83;1.70;;;;;;;;;;5035469;28;20055;-83
2022/10/25 05:29:35;;;;;;;2.17;1.20;;;;;;;;;;5018718;28;20044;-84
2022/10/25 05:32:01;;;;;;;1.80;1.20;;;;;;;;;;5035536;28;20041;-84
2022/10/25 05:34:27;;;;;;;1.63;1.10;;;;;;;;;;5036669;28;20057;-84
2022/10/25 05:36:53;;;;;;;1.75;1.20;;;;;;;;;;5035422;28;20473;-86
2022/10/25 05:39:18;;;;;;;2.45;0.90;;;;;;;;;;5034754;28;20037;-84
2022/10/25 05:41:44;;;;;;;3.65;1.10;;;;;;;;;;5019157;28;20033;-84
2022/10/25 05:44:09;;;;;;;2.97;1.02;;;;;;;;;;5035784;28;20135;-84
2022/10/25 05:46:35;;;;;;;2.15;1.10;;;;;;;;;;5019065;28;20034;-84
2022/10/25 05:49:01;;;;;;;1.83;1.10;;;;;;;;;;5019197;28;20037;-85
2022/10/25 05:51:28;;;;;;;16.30;1.80;;;;;;;;;;5036136;28;20325;-84
2022/10/25 05:53:56;;;;;;;13.82;2.30;;;;;;;;;;5034934;28;20120;-84
2022/10/25 05:56:24;;;;;;;2.78;1.40;;;;;;;;;;5035986;28;20030;-84
2022/10/25 05:58:50;;;;;;;2.92;1.10;;;;;;;;;;5035269;28;20083;-85
2022/10/25 06:01:18;;;;;;;3.15;1.00;;;;;;;;;;5037553;28;20033;-85
2022/10/25 06:03:47;;;;;;;2.83;1.38;;;;;;;;;;5036228;28;20406;-84
2022/10/25 06:06:12;;;;;;;2.38;1.73;;;;;;;;;;5034861;28;20038;-85
2022/10/25 06:08:38;;;;;;;1.23;0.90;;;;;;;;;;5035482;28;20102;-85
2022/10/25 06:11:07;;;;;;;2.45;0.93;;;;;;;;;;5036867;28;20064;-86
2022/10/25 06:13:33;;;;;;;3.70;1.08;;;;;;;;;;5040737;28;20044;-85
2022/10/25 06:16:05;;;;;;;2.25;1.17;;;;;;;;;;5039234;28;20064;-84
2022/10/25 06:18:32;;;;;;;2.25;1.00;;;;;;;;;;5040691;28;20041;-86
2022/10/25 06:21:06;;;;;;;3.15;1.00;;;;;;;;;;5020893;28;20486;-85
2022/10/25 06:23:35;;;;;;;4.43;1.10;;;;;;;;;;5041856;28;20079;-84
2022/10/25 06:26:04;;;;;;;1.15;1.00;;;;;;;;;;5041377;28;20021;-83
2022/10/25 06:28:30;;;;;;;2.90;1.17;;;;;;;;;;5042681;28;20047;-82
2022/10/25 06:31:09;;;;;;;8.07;1.10;;;;;;;;;;5043559;28;20108;-84
2022/10/25 06:33:34;;;;;;;2.95;1.10;;;;;;;;;;5041276;28;20030;-85
2022/10/25 06:36:01;;;;;;;2.72;0.80;;;;;;;;;;5040816;28;20146;-85
2022/10/25 06:38:28;;;;;;;4.13;1.70;;;;;;;;;;5038445;28;20499;-85
2022/10/25 06:41:01;;;;;;;2.83;1.80;;;;;;;;;;5038442;28;20025;-85
2022/10/25 06:43:27;;;;;;;5.32;1.10;;;;;;;;;;5038305;28;20056;-85
2022/10/25 06:45:54;;;;;;;2.72;1.67;;;;;;;;;;5036815;28;20057;-82
2022/10/25 06:48:20;;;;;;;3.70;1.27;;;;;;;;;;5038915;28;20112;-83
2022/10/25 06:50:45;;;;;;;1.42;1.15;;;;;;;;;;5040914;28;20076;-84
2022/10/25 06:53:10;;;;;;;4.70;1.70;;;;;;;;;;5039153;28;20124;-82
2022/10/25 06:55:36;;;;;;;1.30;0.90;;;;;;;;;;5036478;28;20036;-82
2022/10/25 06:58:02;;;;;;;1.10;0.80;;;;;;;;;;5039326;28;20505;-84
2022/10/25 07:00:27;;;;;;;1.38;1.00;;;;;;;;;;5039563;28;20033;-84
2022/10/25 07:02:58;;;;;;;1.00;0.90;;;;;;;;;;5037407;28;20049;-84
2022/10/25 07:05:24;;;;;;;1.52;1.00;;;;;;;;;;5038467;28;20025;-84
2022/10/25 07:07:49;;;;;;;2.88;0.80;;;;;;;;;;5037955;28;20111;-85
2022/10/25 07:10:15;;;;;;;0.90;0.80;;;;;;;;;;5039515;28;20033;-84
2022/10/25 07:12:41;;;;;;;1.25;0.85;;;;;;;;;;5038848;28;20052;-85
2022/10/25 07:15:07;;;;;;;1.27;0.80;;;;;;;;;;5039013;28;20363;-85
2022/10/25 07:17:33;;;;;;;1.23;0.80;;;;;;;;;;5038227;28;20065;-86
2022/10/25 07:19:58;;;;;;;1.05;0.68;;;;;;;;;;5038764;28;20045;-85
2022/10/25 07:22:24;;;;;;;1.10;0.70;;;;;;;;;;5037343;28;20073;-85
2022/10/25 07:24:49;;;;;;;2.70;1.30;;;;;;;;;;5039335;28;20076;-86
2022/10/25 07:27:15;;;;;;;9.98;1.50;;;;;;;;;;5022104;28;20410;-86
2022/10/25 07:29:40;;;;;;;1.00;0.90;;;;;;;;;;5038580;28;20126;-85
2022/10/25 07:32:07;;;;;;;1.50;1.02;;;;;;;;;;5040882;28;20030;-86
2022/10/25 07:34:32;;;;;;;2.97;1.38;;;;;;;;;;5035440;28;20038;-84
2022/10/25 07:36:58;;;;;;;2.13;1.50;;;;;;;;;;5035386;28;20641;-84
2022/10/25 07:39:23;;;;;;;2.50;1.63;;;;;;;;;;5035368;28;20040;-85
2022/10/25 07:41:49;;;;;;;2.33;1.45;;;;;;;;;;5019050;28;20559;-84
2022/10/25 07:44:15;;;;;;;5.18;2.03;;;;;;;;;;5035152;28;20044;-85
2022/10/25 07:46:40;;;;;;;2.17;1.35;;;;;;;;;;5035572;28;20113;-84
2022/10/25 07:49:09;;;;;;;2.25;0.90;;;;;;;;;;5035967;28;20037;-86
2022/10/25 07:51:34;;;;;;;1.08;0.80;;;;;;;;;;5034919;28;20148;-83
2022/10/25 07:53:59;;;;;;;2.97;0.90;;;;;;;;;;5036386;28;20517;-84
2022/10/25 07:56:25;;;;;;;1.67;0.90;;;;;;;;;;5036768;28;20037;-86
2022/10/25 07:58:51;;;;;;;1.42;0.90;;;;;;;;;;5036922;28;20060;-85
2022/10/25 08:01:19;;;;;;;1.10;1.00;;;;;;;;;;5019159;28;20402;-85
2022/10/25 08:03:45;;;;;;;3.35;1.02;;;;;;;;;;5034906;28;20041;-85
2022/10/25 08:06:10;;;;;;;1.80;0.80;;;;;;;;;;5018171;28;20040;-85
2022/10/25 08:08:36;;;;;;;2.22;0.80;;;;;;;;;;5036467;28;20033;-85
2022/10/25 08:11:05;;;;;;;1.38;0.88;;;;;;;;;;5034672;28;20037;-85
2022/10/25 08:13:31;;;;;;;1.13;0.80;;;;;;;;;;5034736;28;20072;-86
2022/10/25 08:15:56;;;;;;;2.83;0.90;;;;;;;;;;5017902;28;20041;-86
2022/10/25 08:18:22;;;;;;;2.10;0.70;;;;;;;;;;5034218;28;20410;-86
2022/10/25 08:20:48;;;;;;;1.88;0.80;;;;;;;;;;5018679;28;20478;-86
2022/10/25 08:23:14;;;;;;;1.30;0.82;;;;;;;;;;5036945;28;20044;-85
2022/10/25 08:25:40;;;;;;;1.52;0.70;;;;;;;;;;5035365;28;20553;-85
2022/10/25 08:28:05;;;;;;;2.28;0.88;;;;;;;;;;5034972;28;20040;-86
2022/10/25 08:30:31;;;;;;;2.15;0.70;;;;;;;;;;5035957;28;20120;-85
2022/10/25 08:32:56;;;;;;;2.10;0.80;;;;;;;;;;5035312;28;20433;-85
2022/10/25 08:35:22;;;;;;;3.85;0.70;;;;;;;;;;5034924;28;20041;-85
2022/10/25 08:37:47;;;;;;;2.33;1.02;;;;;;;;;;5034160;28;20558;-84
2022/10/25 08:40:28;;;;;;;3.55;0.90;;;;;;;;;;5045829;28;20506;-85
2022/10/25 08:42:57;;;;;;;0.80;0.77;;;;;;;;;;5037539;28;20041;-84
2022/10/25 08:45:48;;;;;;;2.28;0.80;;;;;;;;;;5017929;28;20781;-85
2022/10/25 08:48:18;;;;;;;1.30;0.80;;;;;;;;;;5036114;28;20034;-85
2022/10/25 08:50:49;;;;;;;4.40;0.85;;;;;;;;;;5050953;28;20038;-84
2022/10/25 08:53:26;;;;;;;1.42;0.73;;;;;;;;;;5034130;28;20206;-84
2022/10/25 08:55:53;;;;;;;3.22;1.00;;;;;;;;;;5034863;28;20065;-87
2022/10/25 08:58:48;;;;;;;3.30;0.80;;;;;;;;;;5017291;28;20033;-87
2022/10/25 09:01:18;;;;;;;2.40;1.00;;;;;;;;;;5033691;28;20044;-85
2022/10/25 09:03:43;;;;;;;2.85;1.77;;;;;;;;;;5033155;28;20029;-86
2022/10/25 09:06:21;;;;;;;2.08;1.50;;;;;;;;;;5033670;28;20112;-86
2022/10/25 09:09:07;;;;;;;4.15;2.15;;;;;;;;;;5016182;28;20116;-87
2022/10/25 09:11:42;;;;;;;5.22;2.13;;;;;;;;;;5050251;28;20478;-87
2022/10/25 09:14:57;;;;;;;3.83;2.03;;;;;;;;;;5034368;28;20037;-86
2022/10/25 09:17:46;;;;;;;2.67;2.10;;;;;;;;;;4953921;29;20433;-86
2022/10/25 09:20:32;;;;;;;2.45;1.60;;;;;;;;;;4954298;29;20043;-87
2022/10/25 09:23:28;;;;;;;4.38;1.70;;;;;;;;;;5012603;28;20482;-87
2022/10/25 09:25:57;;;;;;;3.72;2.05;;;;;;;;;;5033678;28;20037;-86
2022/10/25 09:29:01;;;;;;;2.72;1.80;;;;;;;;;;5016762;28;20084;-87
2022/10/25 09:31:32;;;;;;;2.50;2.15;;;;;;;;;;5016822;28;20052;-86
2022/10/25 09:34:04;;;;;;;2.60;1.23;;;;;;;;;;5050189;28;20044;-86
2022/10/25 09:36:42;;;;;;;3.50;1.10;;;;;;;;;;5034024;28;20040;-87
2022/10/25 09:39:20;;;;;;;5.45;1.10;;;;;;;;;;5039427;28;20087;-85
2022/10/25 09:41:51;;;;;;;4.20;0.95;;;;;;;;;;5052257;28;20040;-86
2022/10/25 09:44:35;;;;;;;0.93;0.80;;;;;;;;;;5049409;28;20037;-87
2022/10/25 09:47:11;;;;;;;1.67;0.80;;;;;;;;;;5051714;28;20580;-84
2022/10/25 09:49:58;;;;;;;3.80;0.70;;;;;;;;;;5053503;28;20045;-87
2022/10/25 09:52:27;;;;;;;2.15;0.80;;;;;;;;;;5057481;28;20032;-84
2022/10/25 09:55:20;;;;;;;3.65;0.80;;;;;;;;;;5052870;28;20033;-84
2022/10/25 09:57:45;;;;;;;0.70;0.70;;;;;;;;;;5032973;28;20064;-85
2022/10/25 10:00:13;;;;;;;2.42;0.90;;;;;;;;;;5037456;28;20033;-86
2022/10/25 10:02:39;;;;;;;2.00;0.90;;;;;;;;;;5033129;28;20087;-84
2022/10/25 10:05:04;;;;;;;2.05;0.90;;;;;;;;;;5031695;28;20033;-85
2022/10/25 10:07:34;;;;;;;1.58;1.02;;;;;;;;;;5015177;28;20083;-85
2022/10/25 10:10:06;;;;;;;2.05;1.20;;;;;;;;;;5015661;28;20515;-86
2022/10/25 10:12:45;;;;;;;1.02;0.90;;;;;;;;;;5033534;28;20343;-87
2022/10/25 10:15:26;;;;;;;1.75;0.95;;;;;;;;;;5031661;28;20048;-85
2022/10/25 10:18:24;;;;;;;1.02;0.80;;;;;;;;;;5044856;28;20056;-84
2022/10/25 10:21:01;;;;;;;9.43;1.40;;;;;;;;;;5050498;28;20033;-86
2022/10/25 10:23:42;;;;;;;2.88;1.17;;;;;;;;;;5034616;28;20029;-85
2022/10/25 10:26:20;;;;;;;2.25;1.05;;;;;;;;;;5033438;28;20041;-85
2022/10/25 10:28:47;;;;;;;2.40;0.90;;;;;;;;;;5032505;28;20146;-85
2022/10/25 10:31:13;;;;;;;3.28;1.50;;;;;;;;;;5048664;28;20476;-86
2022/10/25 10:33:45;;;;;;;2.30;1.75;;;;;;;;;;5052759;28;20020;-86
2022/10/25 10:36:27;;;;;;;1.85;1.23;;;;;;;;;;5052139;28;20056;-86
2022/10/25 10:38:54;;;;;;;2.00;1.20;;;;;;;;;;5052598;28;20108;-86
2022/10/25 10:41:27;;;;;;;1.75;1.00;;;;;;;;;;5056901;28;20075;-84
2022/10/25 10:44:12;;;;;;;2.05;1.20;;;;;;;;;;5057132;28;20048;-84
2022/10/25 10:46:45;;;;;;;2.25;1.13;;;;;;;;;;5048050;28;20036;-85
2022/10/25 10:49:12;;;;;;;2.05;0.90;;;;;;;;;;5037307;28;20472;-85
2022/10/25 10:51:41;;;;;;;1.65;0.70;;;;;;;;;;5035349;28;20106;-85
2022/10/25 10:54:27;;;;;;;2.78;1.60;;;;;;;;;;5038184;28;20029;-85
2022/10/25 10:56:55;;;;;;;3.13;1.38;;;;;;;;;;5038635;28;20040;-86
2022/10/25 10:59:29;;;;;;;6.72;1.80;;;;;;;;;;5035917;28;20037;-86
2022/10/25 11:01:55;;;;;;;2.03;1.30;;;;;;;;;;5036393;28;20069;-85
2022/10/25 11:04:20;;;;;;;3.13;1.30;;;;;;;;;;5037114;28;20044;-84
2022/10/25 11:06:46;;;;;;;1.98;0.80;;;;;;;;;;5044170;28;20049;-86
2022/10/25 11:09:11;;;;;;;2.38;1.30;;;;;;;;;;5052544;28;20037;-86
2022/10/25 11:11:38;;;;;;;2.20;0.80;;;;;;;;;;5049547;28;20030;-86
2022/10/25 11:14:12;;;;;;;1.42;0.60;;;;;;;;;;5049467;28;20494;-86
2022/10/25 11:16:41;;;;;;;2.65;0.82;;;;;;;;;;5050554;28;20041;-86
2022/10/25 11:19:09;;;;;;;2.28;0.60;;;;;;;;;;5049166;28;20075;-86
2022/10/25 11:21:50;;;;;;;1.67;0.70;;;;;;;;;;5051653;28;20029;-86
2022/10/25 11:24:52;;;;;;;1.17;0.80;;;;;;;;;;5047136;28;20028;-86
2022/10/25 11:27:59;;;;;;;5.75;0.90;;;;;;;;;;5063784;28;20176;-86
2022/10/25 11:30:36;;;;;;;3.03;0.80;;;;;;;;;;5022971;28;20526;-87
2022/10/25 11:33:16;;;;;;;5.03;0.90;;;;;;;;;;5040266;28;20072;-86
2022/10/25 11:36:06;;;;;;;1.15;0.70;;;;;;;;;;5038298;28;20061;-86
2022/10/25 11:38:34;;;;;;;1.45;0.70;;;;;;;;;;5038615;28;20233;-85
2022/10/25 11:41:38;;;;;;;2.17;0.70;;;;;;;;;;5038170;28;20045;-85
2022/10/25 11:44:06;;;;;;;1.20;0.67;;;;;;;;;;5038043;28;20468;-86
2022/10/25 11:46:58;;;;;;;2.60;1.58;;;;;;;;;;5038570;28;20037;-88
2022/10/25 11:49:29;;;;;;;2.47;0.90;;;;;;;;;;5031875;28;20064;-87
2022/10/25 11:52:20;;;;;;;2.17;0.70;;;;;;;;;;5019240;28;20037;-87
2022/10/25 11:55:23;;;;;;;3.80;0.90;;;;;;;;;;5042799;28;20072;-85
2022/10/25 11:57:52;;;;;;;3.38;1.10;;;;;;;;;;5044505;28;20056;-88
2022/10/25 12:00:21;;;;;;;1.42;0.80;;;;;;;;;;5049136;28;20042;-87
2022/10/25 12:03:19;;;;;;;2.25;0.80;;;;;;;;;;5054575;28;20123;-86
2022/10/25 12:05:56;;;;;;;3.28;0.70;;;;;;;;;;5044261;28;20424;-86
2022/10/25 12:08:29;;;;;;;1.77;0.75;;;;;;;;;;5055721;28;20033;-87
2022/10/25 12:11:02;;;;;;;2.33;0.75;;;;;;;;;;5056889;28;20033;-87
2022/10/25 12:13:36;;;;;;;2.83;0.80;;;;;;;;;;5058041;28;20043;-87
2022/10/25 12:16:07;;;;;;;2.63;0.70;;;;;;;;;;5057208;28;20032;-87
2022/10/25 12:19:04;;;;;;;1.98;0.68;;;;;;;;;;5057607;28;20424;-85
2022/10/25 12:21:41;;;;;;;3.50;0.70;;;;;;;;;;5056295;28;20124;-86
2022/10/25 12:24:15;;;;;;;1.88;0.73;;;;;;;;;;5056096;28;20048;-86
2022/10/25 12:26:41;;;;;;;1.52;0.70;;;;;;;;;;5057396;28;20037;-84
2022/10/25 12:29:15;;;;;;;3.05;0.80;;;;;;;;;;5056263;28;20090;-86
2022/10/25 12:31:49;;;;;;;1.52;0.60;;;;;;;;;;5056078;28;20512;-87
2022/10/25 12:34:48;;;;;;;1.35;0.65;;;;;;;;;;5057900;28;20084;-85
2022/10/25 12:37:35;;;;;;;1.17;0.50;;;;;;;;;;5014464;28;20493;-85
2022/10/25 12:40:00;;;;;;;1.75;0.70;;;;;;;;;;5056239;28;20040;-85
2022/10/25 12:42:36;;;;;;;1.67;0.60;;;;;;;;;;5056810;28;20029;-86
2022/10/25 12:45:23;;;;;;;1.50;0.60;;;;;;;;;;5056597;28;20033;-85
2022/10/25 12:48:02;;;;;;;2.55;0.70;;;;;;;;;;5058090;28;20036;-85
2022/10/25 12:51:03;;;;;;;2.15;0.70;;;;;;;;;;5059496;28;20469;-85
2022/10/25 12:53:40;;;;;;;3.42;0.80;;;;;;;;;;4996168;28;20045;-86
2022/10/25 12:56:39;;;;;;;4.25;0.73;;;;;;;;;;5045630;28;20071;-85
2022/10/25 12:59:40;;;;;;;1.80;0.68;;;;;;;;;;5056776;28;20041;-87
2022/10/25 13:02:06;;;;;;;3.72;0.73;;;;;;;;;;5057985;28;20497;-87
2022/10/25 13:04:57;;;;;;;2.58;0.88;;;;;;;;;;5057245;28;20045;-85
2022/10/25 13:07:23;;;;;;;2.05;0.60;;;;;;;;;;5057806;28;20098;-85
2022/10/25 13:09:49;;;;;;;1.40;0.70;;;;;;;;;;5057560;28;20474;-86
2022/10/25 13:12:14;;;;;;;3.28;0.68;;;;;;;;;;5040187;28;20044;-86
2022/10/25 13:14:49;;;;;;;2.42;0.60;;;;;;;;;;5057239;28;20029;-88
2022/10/25 13:17:14;;;;;;;2.70;0.80;;;;;;;;;;5058916;28;20052;-87
2022/10/25 13:19:44;;;;;;;4.75;0.70;;;;;;;;;;5058641;28;20033;-85
2022/10/25 13:22:39;;;;;;;2.63;0.60;;;;;;;;;;5056774;28;20056;-85
2022/10/25 13:25:07;;;;;;;2.40;0.70;;;;;;;;;;5057458;28;20071;-84
2022/10/25 13:27:34;;;;;;;2.40;0.85;;;;;;;;;;5057388;28;20041;-85
2022/10/25 13:30:06;;;;;;;3.08;0.63;;;;;;;;;;5059476;28;20482;-87
2022/10/25 13:32:34;;;;;;;1.90;0.75;;;;;;;;;;5058782;28;20041;-85
2022/10/25 13:35:02;;;;;;;3.70;0.95;;;;;;;;;;5058033;28;20037;-85
2022/10/25 13:37:30;;;;;;;4.43;0.80;;;;;;;;;;5058152;28;20122;-87
2022/10/25 13:40:06;;;;;;;3.75;0.80;;;;;;;;;;5057149;28;20045;-87
2022/10/25 13:42:34;;;;;;;2.80;0.80;;;;;;;;;;5041763;28;20051;-85
2022/10/25 13:45:02;;;;;;;2.00;0.80;;;;;;;;;;5058657;28;20041;-87
2022/10/25 13:47:45;;;;;;;2.72;0.70;;;;;;;;;;5059369;28;20123;-87
2022/10/25 13:50:25;;;;;;;4.68;1.10;;;;;;;;;;5041764;28;20551;-86
2022/10/25 13:53:02;;;;;;;2.30;0.80;;;;;;;;;;5058993;28;20040;-85
2022/10/25 13:55:33;;;;;;;6.07;0.80;;;;;;;;;;5057475;28;20413;-86
2022/10/25 13:58:00;;;;;;;3.22;0.77;;;;;;;;;;5058697;28;20044;-85
2022/10/25 14:00:40;;;;;;;0.98;0.60;;;;;;;;;;5058864;28;20036;-84
2022/10/25 14:03:08;;;;;;;2.13;0.80;;;;;;;;;;5057798;28;20095;-86
2022/10/25 14:05:55;;;;;;;2.72;0.80;;;;;;;;;;5054113;28;20084;-82
2022/10/25 14:08:42;;;;;;;5.32;0.90;;;;;;;;;;5056451;28;20484;-86
2022/10/25 14:11:16;;;;;;;3.05;0.82;;;;;;;;;;5039640;28;20037;-86
2022/10/25 14:13:51;;;;;;;3.88;0.85;;;;;;;;;;5056155;28;20134;-88
2022/10/25 14:16:35;;;;;;;2.33;0.70;;;;;;;;;;5056318;28;20033;-85
2022/10/25 14:19:16;;;;;;;1.67;0.73;;;;;;;;;;5055739;28;20067;-86
2022/10/25 14:21:54;;;;;;;2.47;0.80;;;;;;;;;;5056197;28;20046;-86
2022/10/25 14:24:20;;;;;;;3.05;0.70;;;;;;;;;;5054757;28;20041;-87
2022/10/25 14:27:03;;;;;;;3.22;1.05;;;;;;;;;;5056879;28;20112;-85
2022/10/25 14:29:29;;;;;;;2.42;0.80;;;;;;;;;;5056188;28;20047;-85
2022/10/25 14:31:55;;;;;;;2.38;0.70;;;;;;;;;;5047748;28;20029;-87
2022/10/25 14:34:28;;;;;;;2.30;0.82;;;;;;;;;;5050538;28;20061;-87
2022/10/25 14:36:57;;;;;;;2.70;1.00;;;;;;;;;;5047148;28;66430;-85
2022/10/25 14:39:29;;;;;;;3.42;1.13;;;;;;;;;;5022229;28;20033;-87
2022/10/25 14:41:55;;;;;;;4.63;1.10;;;;;;;;;;5020310;28;20037;-86
2022/10/25 14:44:24;;;;;;;3.50;1.40;;;;;;;;;;5019832;28;20038;-85
2022/10/25 14:46:51;;;;;;;3.55;1.13;;;;;;;;;;5022899;28;20057;-85
2022/10/25 14:49:17;;;;;;;4.18;1.10;;;;;;;;;;5021751;28;20029;-85
2022/10/25 14:51:43;;;;;;;3.75;1.20;;;;;;;;;;5017811;28;20048;-85
2022/10/25 14:54:09;;;;;;;3.70;1.02;;;;;;;;;;4999975;28;20041;-86
2022/10/25 14:57:02;;;;;;;3.75;1.30;;;;;;;;;;5018528;28;20080;-85
2022/10/25 14:59:49;;;;;;;4.38;1.00;;;;;;;;;;5018747;28;20109;-87
2022/10/25 15:02:26;;;;;;;6.18;1.23;;;;;;;;;;5017302;28;20034;-86
2022/10/25 15:04:55;;;;;;;5.00;1.60;;;;;;;;;;5017513;28;20037;-85
2022/10/25 15:07:24;;;;;;;2.67;1.50;;;;;;;;;;5030163;28;20054;-87
2022/10/25 15:09:51;;;;;;;4.68;1.33;;;;;;;;;;5040059;28;20490;-87